sensor_id;sensor_type;location;lat;lon;timestamp;temperature;humidity
28632;DHT22;15818;45.534;5.292;2022-10-20T00:01:52;17.20;99.90
28632;DHT22;15818;45.534;5.292;2022-10-20T00:04:17;17.20;99.90
28632;DHT22;15818;45.534;5.292;2022-10-20T00:06:43;17.20;99.90
28632;DHT22;15818;45.534;5.292;2022-10-20T00:09:09;17.30;99.90
28632;DHT22;15818;45.534;5.292;2022-10-20T00:11:35;17.10;99.90
28632;DHT22;15818;45.534;5.292;2022-10-20T00:14:01;17.20;99.90
28632;DHT22;15818;45.534;5.292;2022-10-20T00:16:28;17.20;99.90
28632;DHT22;15818;45.534;5.292;2022-10-20T00:18:55;17.20;99.90
28632;DHT22;15818;45.534;5.292;2022-10-20T00:21:23;17.20;99.90
28632;DHT22;15818;45.534;5.292;2022-10-20T00:23:49;17.20;99.90
28632;DHT22;15818;45.534;5.292;2022-10-20T00:26:21;17.10;99.90
28632;DHT22;15818;45.534;5.292;2022-10-20T00:28:47;17.10;99.90
28632;DHT22;15818;45.534;5.292;2022-10-20T00:31:14;17.20;99.90
28632;DHT22;15818;45.534;5.292;2022-10-20T00:33:40;17.30;99.90
28632;DHT22;15818;45.534;5.292;2022-10-20T00:36:08;17.20;99.90
28632;DHT22;15818;45.534;5.292;2022-10-20T00:38:34;17.20;99.90
28632;DHT22;15818;45.534;5.292;2022-10-20T00:41:00;17.20;99.90
28632;DHT22;15818;45.534;5.292;2022-10-20T00:46:25;17.20;99.90
28632;DHT22;15818;45.534;5.292;2022-10-20T00:48:58;17.20;99.90
28632;DHT22;15818;45.534;5.292;2022-10-20T00:51:28;17.20;99.90
28632;DHT22;15818;45.534;5.292;2022-10-20T00:54:02;17.20;99.90
28632;DHT22;15818;45.534;5.292;2022-10-20T00:56:31;17.30;99.90
28632;DHT22;15818;45.534;5.292;2022-10-20T00:58:57;17.30;99.90
28632;DHT22;15818;45.534;5.292;2022-10-20T01:01:24;17.20;99.90
28632;DHT22;15818;45.534;5.292;2022-10-20T01:03:51;17.20;99.90
28632;DHT22;15818;45.534;5.292;2022-10-20T01:06:19;17.20;99.90
28632;DHT22;15818;45.534;5.292;2022-10-20T01:08:45;17.20;99.90
28632;DHT22;15818;45.534;5.292;2022-10-20T01:28:34;17.30;99.90
28632;DHT22;15818;45.534;5.292;2022-10-20T01:34:06;17.40;99.90
28632;DHT22;15818;45.534;5.292;2022-10-20T01:36:46;17.30;99.90
28632;DHT22;15818;45.534;5.292;2022-10-20T01:39:53;17.40;99.90
28632;DHT22;15818;45.534;5.292;2022-10-20T01:42:24;17.40;99.90
28632;DHT22;15818;45.534;5.292;2022-10-20T01:44:55;17.40;99.90
28632;DHT22;15818;45.534;5.292;2022-10-20T01:47:24;17.30;99.90
28632;DHT22;15818;45.534;5.292;2022-10-20T01:49:51;17.40;99.90
28632;DHT22;15818;45.534;5.292;2022-10-20T01:52:17;17.40;99.90
28632;DHT22;15818;45.534;5.292;2022-10-20T01:54:45;17.40;99.90
28632;DHT22;15818;45.534;5.292;2022-10-20T02:00:09;17.30;99.90
28632;DHT22;15818;45.534;5.292;2022-10-20T02:05:52;17.30;99.90
28632;DHT22;15818;45.534;5.292;2022-10-20T02:08:51;17.20;99.90
28632;DHT22;15818;45.534;5.292;2022-10-20T02:13:48;17.20;99.90
28632;DHT22;15818;45.534;5.292;2022-10-20T02:19:15;17.10;99.90
28632;DHT22;15818;45.534;5.292;2022-10-20T02:21:42;17.10;99.90
28632;DHT22;15818;45.534;5.292;2022-10-20T02:24:09;17.10;99.90
28632;DHT22;15818;45.534;5.292;2022-10-20T02:26:36;17.10;99.90
28632;DHT22;15818;45.534;5.292;2022-10-20T02:29:13;17.00;99.90
28632;DHT22;15818;45.534;5.292;2022-10-20T02:31:39;17.00;99.90
28632;DHT22;15818;45.534;5.292;2022-10-20T02:34:06;17.10;99.90
28632;DHT22;15818;45.534;5.292;2022-10-20T02:36:37;17.10;99.90
28632;DHT22;15818;45.534;5.292;2022-10-20T02:39:03;17.10;99.90
28632;DHT22;15818;45.534;5.292;2022-10-20T02:41:29;17.20;99.90
28632;DHT22;15818;45.534;5.292;2022-10-20T02:43:56;17.30;99.90
28632;DHT22;15818;45.534;5.292;2022-10-20T02:46:22;17.40;99.90
28632;DHT22;15818;45.534;5.292;2022-10-20T02:48:48;17.30;99.90
28632;DHT22;15818;45.534;5.292;2022-10-20T02:51:13;17.30;99.90
28632;DHT22;15818;45.534;5.292;2022-10-20T02:53:39;17.30;99.90
28632;DHT22;15818;45.534;5.292;2022-10-20T02:56:05;17.20;99.90
28632;DHT22;15818;45.534;5.292;2022-10-20T02:58:31;17.20;99.90
28632;DHT22;15818;45.534;5.292;2022-10-20T03:00:57;17.20;99.90
28632;DHT22;15818;45.534;5.292;2022-10-20T03:03:22;17.20;99.90
28632;DHT22;15818;45.534;5.292;2022-10-20T03:05:48;17.20;99.90
28632;DHT22;15818;45.534;5.292;2022-10-20T03:08:14;17.10;99.90
28632;DHT22;15818;45.534;5.292;2022-10-20T03:10:40;17.10;99.90
28632;DHT22;15818;45.534;5.292;2022-10-20T03:13:07;17.20;99.90
28632;DHT22;15818;45.534;5.292;2022-10-20T03:15:33;17.20;99.90
28632;DHT22;15818;45.534;5.292;2022-10-20T03:17:59;17.10;99.90
28632;DHT22;15818;45.534;5.292;2022-10-20T03:20:24;17.10;99.90
28632;DHT22;15818;45.534;5.292;2022-10-20T03:22:50;17.10;99.90
28632;DHT22;15818;45.534;5.292;2022-10-20T03:25:16;17.10;99.90
28632;DHT22;15818;45.534;5.292;2022-10-20T03:27:41;17.10;99.90
28632;DHT22;15818;45.534;5.292;2022-10-20T03:30:08;17.20;99.90
28632;DHT22;15818;45.534;5.292;2022-10-20T03:32:33;17.30;99.90
28632;DHT22;15818;45.534;5.292;2022-10-20T03:34:59;17.30;99.90
28632;DHT22;15818;45.534;5.292;2022-10-20T03:37:25;17.30;99.90
28632;DHT22;15818;45.534;5.292;2022-10-20T03:39:50;17.30;99.90
28632;DHT22;15818;45.534;5.292;2022-10-20T03:42:16;17.40;99.90
28632;DHT22;15818;45.534;5.292;2022-10-20T03:44:42;17.40;99.90
28632;DHT22;15818;45.534;5.292;2022-10-20T03:47:10;17.30;99.90
28632;DHT22;15818;45.534;5.292;2022-10-20T03:49:36;17.40;99.90
28632;DHT22;15818;45.534;5.292;2022-10-20T03:52:02;17.40;99.90
28632;DHT22;15818;45.534;5.292;2022-10-20T03:54:28;17.30;99.90
28632;DHT22;15818;45.534;5.292;2022-10-20T03:56:54;17.30;99.90
28632;DHT22;15818;45.534;5.292;2022-10-20T03:59:19;17.30;99.90
28632;DHT22;15818;45.534;5.292;2022-10-20T04:01:45;17.30;99.90
28632;DHT22;15818;45.534;5.292;2022-10-20T04:04:11;17.30;99.90
28632;DHT22;15818;45.534;5.292;2022-10-20T04:06:37;17.30;99.90
28632;DHT22;15818;45.534;5.292;2022-10-20T04:09:03;17.30;99.90
28632;DHT22;15818;45.534;5.292;2022-10-20T04:11:30;17.30;99.90
28632;DHT22;15818;45.534;5.292;2022-10-20T04:13:56;17.30;99.90
28632;DHT22;15818;45.534;5.292;2022-10-20T04:16:21;17.20;99.90
28632;DHT22;15818;45.534;5.292;2022-10-20T04:18:47;17.20;99.90
28632;DHT22;15818;45.534;5.292;2022-10-20T04:21:13;17.20;99.90
28632;DHT22;15818;45.534;5.292;2022-10-20T04:23:39;17.30;99.90
28632;DHT22;15818;45.534;5.292;2022-10-20T04:26:11;17.30;99.90
28632;DHT22;15818;45.534;5.292;2022-10-20T04:28:37;17.30;99.90
28632;DHT22;15818;45.534;5.292;2022-10-20T04:31:03;17.30;99.90
28632;DHT22;15818;45.534;5.292;2022-10-20T04:33:30;17.30;99.90
28632;DHT22;15818;45.534;5.292;2022-10-20T04:35:57;17.30;99.90
28632;DHT22;15818;45.534;5.292;2022-10-20T04:38:23;17.30;99.90
28632;DHT22;15818;45.534;5.292;2022-10-20T04:41:08;17.30;99.90
28632;DHT22;15818;45.534;5.292;2022-10-20T04:43:34;17.30;99.90
28632;DHT22;15818;45.534;5.292;2022-10-20T04:46:02;17.30;99.90
28632;DHT22;15818;45.534;5.292;2022-10-20T04:48:28;17.30;99.90
28632;DHT22;15818;45.534;5.292;2022-10-20T04:51:07;17.30;99.90
28632;DHT22;15818;45.534;5.292;2022-10-20T04:53:33;17.30;99.90
28632;DHT22;15818;45.534;5.292;2022-10-20T04:55:59;17.30;99.90
28632;DHT22;15818;45.534;5.292;2022-10-20T04:58:25;17.30;99.90
28632;DHT22;15818;45.534;5.292;2022-10-20T05:00:51;17.20;99.90
28632;DHT22;15818;45.534;5.292;2022-10-20T05:03:17;17.20;99.90
28632;DHT22;15818;45.534;5.292;2022-10-20T05:05:47;17.20;99.90
28632;DHT22;15818;45.534;5.292;2022-10-20T05:08:12;17.20;99.90
28632;DHT22;15818;45.534;5.292;2022-10-20T05:10:38;17.20;99.90
28632;DHT22;15818;45.534;5.292;2022-10-20T05:13:04;17.20;99.90
28632;DHT22;15818;45.534;5.292;2022-10-20T05:15:29;17.20;99.90
28632;DHT22;15818;45.534;5.292;2022-10-20T05:17:56;17.20;99.90
28632;DHT22;15818;45.534;5.292;2022-10-20T05:20:21;17.10;99.90
28632;DHT22;15818;45.534;5.292;2022-10-20T05:22:47;17.20;99.90
28632;DHT22;15818;45.534;5.292;2022-10-20T05:25:13;17.20;99.90
28632;DHT22;15818;45.534;5.292;2022-10-20T05:27:38;17.10;99.90
28632;DHT22;15818;45.534;5.292;2022-10-20T05:30:04;17.10;99.90
28632;DHT22;15818;45.534;5.292;2022-10-20T05:32:30;17.00;99.90
28632;DHT22;15818;45.534;5.292;2022-10-20T05:34:55;17.10;99.90
28632;DHT22;15818;45.534;5.292;2022-10-20T05:37:21;17.10;99.90
28632;DHT22;15818;45.534;5.292;2022-10-20T05:39:47;17.20;99.90
28632;DHT22;15818;45.534;5.292;2022-10-20T05:42:12;17.20;99.90
28632;DHT22;15818;45.534;5.292;2022-10-20T05:44:38;17.20;99.90
28632;DHT22;15818;45.534;5.292;2022-10-20T05:47:04;17.30;99.90
28632;DHT22;15818;45.534;5.292;2022-10-20T05:49:29;17.20;99.90
28632;DHT22;15818;45.534;5.292;2022-10-20T05:51:55;17.20;99.90
28632;DHT22;15818;45.534;5.292;2022-10-20T05:54:20;17.20;99.90
28632;DHT22;15818;45.534;5.292;2022-10-20T05:56:46;17.20;99.90
28632;DHT22;15818;45.534;5.292;2022-10-20T05:59:12;17.20;99.90
28632;DHT22;15818;45.534;5.292;2022-10-20T06:01:38;17.20;99.90
28632;DHT22;15818;45.534;5.292;2022-10-20T06:04:13;17.20;99.90
28632;DHT22;15818;45.534;5.292;2022-10-20T06:06:39;17.20;99.90
28632;DHT22;15818;45.534;5.292;2022-10-20T06:09:07;17.20;99.90
28632;DHT22;15818;45.534;5.292;2022-10-20T06:11:33;17.30;99.90
28632;DHT22;15818;45.534;5.292;2022-10-20T06:13:58;17.30;99.90
28632;DHT22;15818;45.534;5.292;2022-10-20T06:16:25;17.20;99.90
28632;DHT22;15818;45.534;5.292;2022-10-20T06:18:52;17.20;99.90
28632;DHT22;15818;45.534;5.292;2022-10-20T06:21:26;17.30;99.90
28632;DHT22;15818;45.534;5.292;2022-10-20T06:23:52;17.30;99.90
28632;DHT22;15818;45.534;5.292;2022-10-20T06:26:22;17.30;99.90
28632;DHT22;15818;45.534;5.292;2022-10-20T06:28:51;17.30;99.90
28632;DHT22;15818;45.534;5.292;2022-10-20T06:31:25;17.20;99.90
28632;DHT22;15818;45.534;5.292;2022-10-20T06:33:52;17.20;99.90
28632;DHT22;15818;45.534;5.292;2022-10-20T06:36:19;17.30;99.90
28632;DHT22;15818;45.534;5.292;2022-10-20T06:38:45;17.30;99.90
28632;DHT22;15818;45.534;5.292;2022-10-20T06:41:15;17.30;99.90
28632;DHT22;15818;45.534;5.292;2022-10-20T06:43:42;17.20;99.90
28632;DHT22;15818;45.534;5.292;2022-10-20T06:46:11;17.20;99.90
28632;DHT22;15818;45.534;5.292;2022-10-20T06:48:37;17.30;99.90
28632;DHT22;15818;45.534;5.292;2022-10-20T06:51:05;17.30;99.90
28632;DHT22;15818;45.534;5.292;2022-10-20T06:53:33;17.30;99.90
28632;DHT22;15818;45.534;5.292;2022-10-20T06:56:11;17.20;99.90
28632;DHT22;15818;45.534;5.292;2022-10-20T06:58:38;17.30;99.90
28632;DHT22;15818;45.534;5.292;2022-10-20T07:01:12;17.30;99.90
28632;DHT22;15818;45.534;5.292;2022-10-20T07:03:42;17.30;99.90
28632;DHT22;15818;45.534;5.292;2022-10-20T07:06:16;17.20;99.90
28632;DHT22;15818;45.534;5.292;2022-10-20T07:08:42;17.20;99.90
28632;DHT22;15818;45.534;5.292;2022-10-20T07:11:13;17.30;99.90
28632;DHT22;15818;45.534;5.292;2022-10-20T07:13:39;17.30;99.90
28632;DHT22;15818;45.534;5.292;2022-10-20T07:16:07;17.20;99.90
28632;DHT22;15818;45.534;5.292;2022-10-20T07:18:34;17.20;99.90
28632;DHT22;15818;45.534;5.292;2022-10-20T07:21:06;17.20;99.90
28632;DHT22;15818;45.534;5.292;2022-10-20T07:23:33;17.20;99.90
28632;DHT22;15818;45.534;5.292;2022-10-20T07:26:16;17.10;99.90
28632;DHT22;15818;45.534;5.292;2022-10-20T07:28:44;17.20;99.90
28632;DHT22;15818;45.534;5.292;2022-10-20T07:31:15;17.20;99.90
28632;DHT22;15818;45.534;5.292;2022-10-20T07:33:41;17.10;99.90
28632;DHT22;15818;45.534;5.292;2022-10-20T07:36:22;17.10;99.90
28632;DHT22;15818;45.534;5.292;2022-10-20T07:38:52;17.10;99.90
28632;DHT22;15818;45.534;5.292;2022-10-20T07:41:18;17.10;99.90
28632;DHT22;15818;45.534;5.292;2022-10-20T07:43:44;17.10;99.90
28632;DHT22;15818;45.534;5.292;2022-10-20T07:46:11;17.00;99.90
28632;DHT22;15818;45.534;5.292;2022-10-20T07:48:38;17.00;99.90
28632;DHT22;15818;45.534;5.292;2022-10-20T07:53:58;16.90;99.90
28632;DHT22;15818;45.534;5.292;2022-10-20T07:56:31;16.80;99.90
28632;DHT22;15818;45.534;5.292;2022-10-20T07:58:57;16.80;99.90
28632;DHT22;15818;45.534;5.292;2022-10-20T08:01:23;16.80;99.90
28632;DHT22;15818;45.534;5.292;2022-10-20T08:03:49;16.80;99.90
28632;DHT22;15818;45.534;5.292;2022-10-20T08:06:15;16.70;99.90
28632;DHT22;15818;45.534;5.292;2022-10-20T08:08:40;16.70;99.90
28632;DHT22;15818;45.534;5.292;2022-10-20T08:11:07;16.70;99.90
28632;DHT22;15818;45.534;5.292;2022-10-20T08:13:33;16.70;99.90
28632;DHT22;15818;45.534;5.292;2022-10-20T08:15:59;16.70;99.90
28632;DHT22;15818;45.534;5.292;2022-10-20T08:18:25;16.70;99.90
28632;DHT22;15818;45.534;5.292;2022-10-20T08:20:51;16.70;99.90
28632;DHT22;15818;45.534;5.292;2022-10-20T08:23:16;16.50;99.90
28632;DHT22;15818;45.534;5.292;2022-10-20T08:25:42;16.50;99.90
28632;DHT22;15818;45.534;5.292;2022-10-20T08:28:08;16.50;99.90
28632;DHT22;15818;45.534;5.292;2022-10-20T08:30:36;16.60;99.90
28632;DHT22;15818;45.534;5.292;2022-10-20T08:33:02;16.60;99.90
28632;DHT22;15818;45.534;5.292;2022-10-20T08:35:28;16.60;99.90
28632;DHT22;15818;45.534;5.292;2022-10-20T08:37:54;16.70;99.90
28632;DHT22;15818;45.534;5.292;2022-10-20T08:40:24;16.70;99.90
28632;DHT22;15818;45.534;5.292;2022-10-20T08:42:51;16.90;99.90
28632;DHT22;15818;45.534;5.292;2022-10-20T08:45:22;17.10;99.90
28632;DHT22;15818;45.534;5.292;2022-10-20T08:47:53;17.10;99.90
28632;DHT22;15818;45.534;5.292;2022-10-20T08:50:20;17.30;99.90
28632;DHT22;15818;45.534;5.292;2022-10-20T08:52:52;17.30;99.90
28632;DHT22;15818;45.534;5.292;2022-10-20T08:55:32;17.20;99.90
28632;DHT22;15818;45.534;5.292;2022-10-20T08:58:02;17.20;99.90
28632;DHT22;15818;45.534;5.292;2022-10-20T09:00:30;17.20;99.90
28632;DHT22;15818;45.534;5.292;2022-10-20T09:03:08;17.20;99.90
28632;DHT22;15818;45.534;5.292;2022-10-20T09:05:40;17.20;99.90
28632;DHT22;15818;45.534;5.292;2022-10-20T09:08:07;17.30;99.90
28632;DHT22;15818;45.534;5.292;2022-10-20T09:10:36;17.50;99.90
28632;DHT22;15818;45.534;5.292;2022-10-20T09:13:10;17.80;99.90
28632;DHT22;15818;45.534;5.292;2022-10-20T09:15:39;17.70;99.90
28632;DHT22;15818;45.534;5.292;2022-10-20T09:18:06;17.80;99.90
28632;DHT22;15818;45.534;5.292;2022-10-20T09:20:56;17.90;99.90
28632;DHT22;15818;45.534;5.292;2022-10-20T09:23:28;18.00;99.90
28632;DHT22;15818;45.534;5.292;2022-10-20T09:25:55;18.10;99.90
28632;DHT22;15818;45.534;5.292;2022-10-20T09:28:27;18.00;99.90
28632;DHT22;15818;45.534;5.292;2022-10-20T09:30:54;17.80;99.90
28632;DHT22;15818;45.534;5.292;2022-10-20T09:33:31;17.80;99.90
28632;DHT22;15818;45.534;5.292;2022-10-20T09:36:02;17.70;99.90
28632;DHT22;15818;45.534;5.292;2022-10-20T09:38:29;17.80;99.90
28632;DHT22;15818;45.534;5.292;2022-10-20T09:41:29;17.80;99.90
28632;DHT22;15818;45.534;5.292;2022-10-20T09:43:59;17.60;99.90
28632;DHT22;15818;45.534;5.292;2022-10-20T09:46:29;17.70;99.90
28632;DHT22;15818;45.534;5.292;2022-10-20T09:48:57;17.80;99.90
28632;DHT22;15818;45.534;5.292;2022-10-20T09:51:27;17.90;99.90
28632;DHT22;15818;45.534;5.292;2022-10-20T09:54:03;17.90;99.90
28632;DHT22;15818;45.534;5.292;2022-10-20T09:56:36;17.80;99.90
28632;DHT22;15818;45.534;5.292;2022-10-20T09:59:06;17.80;99.90
28632;DHT22;15818;45.534;5.292;2022-10-20T10:01:33;17.80;99.90
28632;DHT22;15818;45.534;5.292;2022-10-20T10:04:30;17.80;99.90
28632;DHT22;15818;45.534;5.292;2022-10-20T10:06:56;17.80;99.90
28632;DHT22;15818;45.534;5.292;2022-10-20T10:09:28;17.80;99.90
28632;DHT22;15818;45.534;5.292;2022-10-20T10:12:04;17.90;99.90
28632;DHT22;15818;45.534;5.292;2022-10-20T10:14:31;17.90;99.90
28632;DHT22;15818;45.534;5.292;2022-10-20T10:16:59;17.90;99.90
28632;DHT22;15818;45.534;5.292;2022-10-20T10:19:30;17.80;99.90
28632;DHT22;15818;45.534;5.292;2022-10-20T10:21:59;17.90;99.90
28632;DHT22;15818;45.534;5.292;2022-10-20T10:26:54;18.10;99.90
28632;DHT22;15818;45.534;5.292;2022-10-20T10:29:30;18.10;99.90
28632;DHT22;15818;45.534;5.292;2022-10-20T10:34:36;18.20;99.90
28632;DHT22;15818;45.534;5.292;2022-10-20T10:37:04;18.20;99.90
28632;DHT22;15818;45.534;5.292;2022-10-20T10:39:33;18.10;99.90
28632;DHT22;15818;45.534;5.292;2022-10-20T10:42:31;18.10;99.90
28632;DHT22;15818;45.534;5.292;2022-10-20T10:47:35;18.10;99.90
28632;DHT22;15818;45.534;5.292;2022-10-20T10:56:02;18.00;99.90
28632;DHT22;15818;45.534;5.292;2022-10-20T11:06:46;18.00;99.90
28632;DHT22;15818;45.534;5.292;2022-10-20T11:23:05;18.20;99.90
28632;DHT22;15818;45.534;5.292;2022-10-20T11:25:42;18.30;99.90
28632;DHT22;15818;45.534;5.292;2022-10-20T11:30:54;18.60;99.90
28632;DHT22;15818;45.534;5.292;2022-10-20T11:33:22;18.50;99.90
28632;DHT22;15818;45.534;5.292;2022-10-20T11:36:17;18.40;99.90
28632;DHT22;15818;45.534;5.292;2022-10-20T11:38:54;18.30;99.90
28632;DHT22;15818;45.534;5.292;2022-10-20T11:41:39;18.30;99.90
28632;DHT22;15818;45.534;5.292;2022-10-20T11:44:26;18.20;99.90
28632;DHT22;15818;45.534;5.292;2022-10-20T11:46:56;18.20;99.90
28632;DHT22;15818;45.534;5.292;2022-10-20T11:49:24;18.20;99.90
28632;DHT22;15818;45.534;5.292;2022-10-20T12:06:50;18.40;99.90
28632;DHT22;15818;45.534;5.292;2022-10-20T12:09:27;18.40;99.90
28632;DHT22;15818;45.534;5.292;2022-10-20T12:12:11;18.40;99.90
28632;DHT22;15818;45.534;5.292;2022-10-20T12:14:42;18.50;99.90
28632;DHT22;15818;45.534;5.292;2022-10-20T12:22:51;18.80;99.90
28632;DHT22;15818;45.534;5.292;2022-10-20T12:25:32;18.80;99.90
28632;DHT22;15818;45.534;5.292;2022-10-20T12:31:01;18.80;99.90
28632;DHT22;15818;45.534;5.292;2022-10-20T12:33:35;18.80;99.90
28632;DHT22;15818;45.534;5.292;2022-10-20T12:36:25;18.90;99.90
28632;DHT22;15818;45.534;5.292;2022-10-20T12:39:14;19.00;99.90
28632;DHT22;15818;45.534;5.292;2022-10-20T12:41:54;19.10;99.90
28632;DHT22;15818;45.534;5.292;2022-10-20T12:44:21;19.10;99.90
28632;DHT22;15818;45.534;5.292;2022-10-20T12:46:57;19.20;99.90
28632;DHT22;15818;45.534;5.292;2022-10-20T12:49:30;19.10;99.90
28632;DHT22;15818;45.534;5.292;2022-10-20T12:51:57;19.10;99.90
28632;DHT22;15818;45.534;5.292;2022-10-20T12:54:36;19.20;99.90
28632;DHT22;15818;45.534;5.292;2022-10-20T12:57:31;19.30;99.90
28632;DHT22;15818;45.534;5.292;2022-10-20T13:02:54;19.20;99.90
28632;DHT22;15818;45.534;5.292;2022-10-20T13:07:59;19.10;99.90
28632;DHT22;15818;45.534;5.292;2022-10-20T13:10:36;19.10;99.90
28632;DHT22;15818;45.534;5.292;2022-10-20T13:23:39;19.00;99.90
28632;DHT22;15818;45.534;5.292;2022-10-20T13:28:44;18.90;99.90
28632;DHT22;15818;45.534;5.292;2022-10-20T13:45:04;18.60;99.90
28632;DHT22;15818;45.534;5.292;2022-10-20T13:47:48;18.50;99.90
28632;DHT22;15818;45.534;5.292;2022-10-20T13:50:27;18.60;99.90
28632;DHT22;15818;45.534;5.292;2022-10-20T13:52:58;18.50;99.90
28632;DHT22;15818;45.534;5.292;2022-10-20T13:55:28;18.50;99.90
28632;DHT22;15818;45.534;5.292;2022-10-20T13:57:58;18.30;99.90
28632;DHT22;15818;45.534;5.292;2022-10-20T14:00:28;18.30;99.90
28632;DHT22;15818;45.534;5.292;2022-10-20T14:03:04;18.20;99.90
28632;DHT22;15818;45.534;5.292;2022-10-20T14:05:39;18.20;99.90
28632;DHT22;15818;45.534;5.292;2022-10-20T14:08:09;18.20;99.90
28632;DHT22;15818;45.534;5.292;2022-10-20T14:13:12;18.10;99.90
28632;DHT22;15818;45.534;5.292;2022-10-20T14:15:41;18.10;99.90
28632;DHT22;15818;45.534;5.292;2022-10-20T14:18:25;18.10;99.90
28632;DHT22;15818;45.534;5.292;2022-10-20T14:21:03;18.00;99.90
28632;DHT22;15818;45.534;5.292;2022-10-20T14:23:49;18.00;99.90
28632;DHT22;15818;45.534;5.292;2022-10-20T14:26:18;17.80;99.90
28632;DHT22;15818;45.534;5.292;2022-10-20T14:28:46;17.60;99.90
28632;DHT22;15818;45.534;5.292;2022-10-20T14:31:13;17.60;99.90
28632;DHT22;15818;45.534;5.292;2022-10-20T14:33:42;17.40;99.90
28632;DHT22;15818;45.534;5.292;2022-10-20T14:36:27;17.40;99.90
28632;DHT22;15818;45.534;5.292;2022-10-20T14:38:55;17.30;99.90
28632;DHT22;15818;45.534;5.292;2022-10-20T14:41:32;17.40;99.90
28632;DHT22;15818;45.534;5.292;2022-10-20T14:44:04;17.30;99.90
28632;DHT22;15818;45.534;5.292;2022-10-20T14:46:35;17.30;99.90
28632;DHT22;15818;45.534;5.292;2022-10-20T14:49:02;17.30;99.90
28632;DHT22;15818;45.534;5.292;2022-10-20T14:54:24;17.30;99.90
28632;DHT22;15818;45.534;5.292;2022-10-20T14:57:00;17.30;99.90
28632;DHT22;15818;45.534;5.292;2022-10-20T14:59:31;17.30;99.90
28632;DHT22;15818;45.534;5.292;2022-10-20T15:02:24;17.30;99.90
28632;DHT22;15818;45.534;5.292;2022-10-20T15:04:51;17.40;99.90
28632;DHT22;15818;45.534;5.292;2022-10-20T15:07:22;17.40;99.90
28632;DHT22;15818;45.534;5.292;2022-10-20T15:09:56;17.40;99.90
28632;DHT22;15818;45.534;5.292;2022-10-20T15:15:05;17.40;99.90
28632;DHT22;15818;45.534;5.292;2022-10-20T15:17:41;17.40;99.90
28632;DHT22;15818;45.534;5.292;2022-10-20T15:20:40;17.40;99.90
28632;DHT22;15818;45.534;5.292;2022-10-20T15:23:15;17.60;99.90
28632;DHT22;15818;45.534;5.292;2022-10-20T15:25:46;17.70;99.90
28632;DHT22;15818;45.534;5.292;2022-10-20T15:28:20;17.80;99.90
28632;DHT22;15818;45.534;5.292;2022-10-20T15:30:47;17.80;99.90
28632;DHT22;15818;45.534;5.292;2022-10-20T15:33:13;17.80;99.90
28632;DHT22;15818;45.534;5.292;2022-10-20T15:35:38;17.80;99.90
28632;DHT22;15818;45.534;5.292;2022-10-20T15:38:11;18.00;99.90
28632;DHT22;15818;45.534;5.292;2022-10-20T15:40:37;17.90;99.90
28632;DHT22;15818;45.534;5.292;2022-10-20T15:43:03;17.70;99.90
28632;DHT22;15818;45.534;5.292;2022-10-20T15:45:36;17.70;99.90
28632;DHT22;15818;45.534;5.292;2022-10-20T15:48:03;17.60;99.90
28632;DHT22;15818;45.534;5.292;2022-10-20T15:50:30;17.70;99.90
28632;DHT22;15818;45.534;5.292;2022-10-20T15:52:56;17.80;99.90
28632;DHT22;15818;45.534;5.292;2022-10-20T15:55:27;17.70;99.90
28632;DHT22;15818;45.534;5.292;2022-10-20T15:57:54;17.80;99.90
28632;DHT22;15818;45.534;5.292;2022-10-20T16:00:24;17.80;99.90
28632;DHT22;15818;45.534;5.292;2022-10-20T16:02:51;17.80;99.90
28632;DHT22;15818;45.534;5.292;2022-10-20T16:05:19;17.80;99.90
28632;DHT22;15818;45.534;5.292;2022-10-20T16:07:46;17.80;99.90
28632;DHT22;15818;45.534;5.292;2022-10-20T16:10:12;17.90;99.90
28632;DHT22;15818;45.534;5.292;2022-10-20T16:12:39;17.90;99.90
28632;DHT22;15818;45.534;5.292;2022-10-20T16:15:09;17.90;99.90
28632;DHT22;15818;45.534;5.292;2022-10-20T16:17:35;17.90;99.90
28632;DHT22;15818;45.534;5.292;2022-10-20T16:20:03;17.80;99.90
28632;DHT22;15818;45.534;5.292;2022-10-20T16:22:30;17.80;99.90
28632;DHT22;15818;45.534;5.292;2022-10-20T16:24:56;17.70;99.90
28632;DHT22;15818;45.534;5.292;2022-10-20T16:27:29;17.80;99.90
28632;DHT22;15818;45.534;5.292;2022-10-20T16:29:55;17.60;99.90
28632;DHT22;15818;45.534;5.292;2022-10-20T16:32:21;17.60;99.90
28632;DHT22;15818;45.534;5.292;2022-10-20T16:34:48;17.60;99.90
28632;DHT22;15818;45.534;5.292;2022-10-20T16:37:13;17.60;99.90
28632;DHT22;15818;45.534;5.292;2022-10-20T16:39:39;17.60;99.90
28632;DHT22;15818;45.534;5.292;2022-10-20T16:42:05;17.50;99.90
28632;DHT22;15818;45.534;5.292;2022-10-20T16:44:31;17.50;99.90
28632;DHT22;15818;45.534;5.292;2022-10-20T16:46:56;17.50;99.90
28632;DHT22;15818;45.534;5.292;2022-10-20T16:49:22;17.50;99.90
28632;DHT22;15818;45.534;5.292;2022-10-20T16:51:49;17.50;99.90
28632;DHT22;15818;45.534;5.292;2022-10-20T16:54:15;17.40;99.90
28632;DHT22;15818;45.534;5.292;2022-10-20T16:56:41;17.30;99.90
28632;DHT22;15818;45.534;5.292;2022-10-20T16:59:07;17.30;99.90
28632;DHT22;15818;45.534;5.292;2022-10-20T17:01:33;17.30;99.90
28632;DHT22;15818;45.534;5.292;2022-10-20T17:03:58;17.30;99.90
28632;DHT22;15818;45.534;5.292;2022-10-20T17:06:24;17.20;99.90
28632;DHT22;15818;45.534;5.292;2022-10-20T17:08:50;17.20;99.90
28632;DHT22;15818;45.534;5.292;2022-10-20T17:11:19;17.10;99.90
28632;DHT22;15818;45.534;5.292;2022-10-20T17:13:45;16.90;99.90
28632;DHT22;15818;45.534;5.292;2022-10-20T17:18:44;16.80;99.90
28632;DHT22;15818;45.534;5.292;2022-10-20T17:21:12;16.70;99.90
28632;DHT22;15818;45.534;5.292;2022-10-20T17:23:40;16.70;99.90
28632;DHT22;15818;45.534;5.292;2022-10-20T17:26:06;16.60;99.90
28632;DHT22;15818;45.534;5.292;2022-10-20T17:28:34;16.60;99.90
28632;DHT22;15818;45.534;5.292;2022-10-20T17:31:00;16.60;99.90
28632;DHT22;15818;45.534;5.292;2022-10-20T17:33:27;16.50;99.90
28632;DHT22;15818;45.534;5.292;2022-10-20T17:35:55;16.60;99.90
28632;DHT22;15818;45.534;5.292;2022-10-20T17:38:21;16.60;99.90
28632;DHT22;15818;45.534;5.292;2022-10-20T17:40:47;16.50;99.90
28632;DHT22;15818;45.534;5.292;2022-10-20T17:43:13;16.50;99.90
28632;DHT22;15818;45.534;5.292;2022-10-20T17:45:39;16.60;99.90
28632;DHT22;15818;45.534;5.292;2022-10-20T17:48:06;16.60;99.90
28632;DHT22;15818;45.534;5.292;2022-10-20T17:50:32;16.70;99.90
28632;DHT22;15818;45.534;5.292;2022-10-20T17:53:01;16.70;99.90
28632;DHT22;15818;45.534;5.292;2022-10-20T17:55:28;16.70;99.90
28632;DHT22;15818;45.534;5.292;2022-10-20T17:57:53;16.80;99.90
28632;DHT22;15818;45.534;5.292;2022-10-20T18:00:19;16.80;99.90
28632;DHT22;15818;45.534;5.292;2022-10-20T18:02:48;16.90;99.90
28632;DHT22;15818;45.534;5.292;2022-10-20T18:05:15;17.00;99.90
28632;DHT22;15818;45.534;5.292;2022-10-20T18:07:41;17.00;99.90